Time;durP1;ratioP1;P1;durP2;ratioP2;P2;SDS_P1;SDS_P2;PMS_P1;PMS_P2;Temp;Humidity;BMP_temperature;BMP_pressure;BME280_temperature;BME280_humidity;BME280_pressure;Samples;Min_cycle;Max_cycle;Signal;HPM_P1;HPM_P2
2021/04/26 00:00:29;;;;;;;6.93;3.33;;;;;;;17.28;45.24;100291.78;5071424;28;20059;-85
2021/04/26 00:03:33;;;;;;;6.22;3.50;;;;;;;17.26;45.46;100294.66;5072758;28;20413;-85
2021/04/26 00:06:37;;;;;;;7.05;3.47;;;;;;;17.20;45.43;100298.09;5073127;28;20060;-86
2021/04/26 00:09:42;;;;;;;7.78;3.65;;;;;;;17.20;45.49;100308.09;5080334;28;20042;-85
2021/04/26 00:12:47;;;;;;;6.35;3.78;;;;;;;17.13;46.00;100310.69;5079414;28;20111;-86
2021/04/26 00:15:51;;;;;;;6.60;3.63;;;;;;;17.17;45.69;100306.56;5076721;28;20048;-85
2021/04/26 00:18:56;;;;;;;6.90;3.67;;;;;;;17.19;46.60;100303.66;5080463;28;20059;-85
2021/04/26 00:22:01;;;;;;;5.43;4.00;;;;;;;17.10;48.13;100300.19;5080669;28;20399;-85
2021/04/26 00:25:06;;;;;;;6.68;4.00;;;;;;;17.09;48.58;100300.34;5077853;28;20395;-84
2021/04/26 00:28:11;;;;;;;6.90;4.05;;;;;;;17.02;50.02;100291.22;5079273;28;20414;-85
2021/04/26 00:31:15;;;;;;;6.18;3.53;;;;;;;16.97;50.62;100299.03;5079915;28;20052;-85
2021/04/26 00:34:19;;;;;;;8.10;3.85;;;;;;;16.92;50.31;100288.72;5080603;28;20047;-85
2021/04/26 00:37:24;;;;;;;7.75;3.55;;;;;;;16.83;48.61;100278.97;5077114;28;20051;-85
2021/04/26 00:40:28;;;;;;;4.45;3.42;;;;;;;16.78;48.31;100278.66;5078658;28;20047;-85
2021/04/26 00:43:32;;;;;;;6.75;3.53;;;;;;;16.74;48.92;100286.28;5079171;28;20051;-85
2021/04/26 00:46:36;;;;;;;8.02;5.03;;;;;;;16.52;53.57;100302.44;5079964;28;20047;-86
2021/04/26 00:49:41;;;;;;;9.68;6.63;;;;;;;16.15;56.52;100298.44;5080256;28;20411;-86
2021/04/26 00:52:48;;;;;;;8.98;6.20;;;;;;;15.91;56.37;100293.06;5072932;28;20063;-85
2021/04/26 00:55:52;;;;;;;7.43;5.35;;;;;;;15.87;55.73;100291.72;5079027;28;20044;-85
2021/04/26 00:58:57;;;;;;;7.10;4.78;;;;;;;15.89;54.91;100288.81;5079618;28;20044;-85
2021/04/26 01:02:02;;;;;;;6.30;5.43;;;;;;;15.86;55.24;100295.41;5083866;28;20510;-85
2021/04/26 01:05:14;;;;;;;8.55;5.65;;;;;;;15.84;55.92;100300.16;5070611;28;20391;-84
2021/04/26 01:08:21;;;;;;;;;;;;;;;15.76;55.95;100297.44;5072945;28;20403;-86
2021/04/26 01:12:13;;;;;;;7.40;5.25;;;;;;;15.74;56.79;100301.34;5062175;28;19972;-84
2021/04/26 01:15:26;;;;;;;8.60;5.65;;;;;;;15.74;56.96;100291.38;5077446;28;20503;-85
2021/04/26 01:19:01;;;;;;;9.55;6.00;;;;;;;15.70;57.29;100281.06;5070341;28;20051;-85
2021/04/26 01:22:39;;;;;;;8.27;5.97;;;;;;;15.78;57.82;100278.31;5077431;28;20502;-85
2021/04/26 01:25:48;;;;;;;7.75;5.85;;;;;;;15.68;58.64;100280.38;5070296;28;20119;-85
2021/04/26 01:29:25;;;;;;;11.63;6.22;;;;;;;15.46;58.18;100289.97;5078934;28;20043;-85
2021/04/26 01:33:04;;;;;;;9.57;6.13;;;;;;;15.41;58.09;100282.34;5071086;28;20052;-85
2021/04/26 01:36:21;;;;;;;9.18;7.47;;;;;;;15.31;57.90;100275.38;5071379;28;20073;-86
2021/04/26 01:39:33;;;;;;;13.98;9.35;;;;;;;15.09;59.19;100276.88;5078865;28;20411;-85
2021/04/26 01:42:44;;;;;;;14.77;10.15;;;;;;;15.01;59.98;100286.84;5076992;28;20506;-86
2021/04/26 01:45:54;;;;;;;15.68;11.68;;;;;;;14.90;60.51;100283.44;5077809;28;20055;-84
2021/04/26 01:49:02;;;;;;;15.13;11.73;;;;;;;14.99;60.67;100289.69;5071875;28;20040;-83
2021/04/26 01:52:12;;;;;;;16.27;12.23;;;;;;;14.94;60.39;100284.78;5077899;28;20047;-83
2021/04/26 01:55:21;;;;;;;17.58;13.45;;;;;;;14.94;60.36;100289.34;5079374;28;20037;-85
2021/04/26 01:58:29;;;;;;;17.17;14.15;;;;;;;14.91;60.65;100284.28;5077698;28;20043;-84
2021/04/26 02:01:34;;;;;;;18.45;14.07;;;;;;;14.85;60.57;100291.19;5076862;28;20047;-85
2021/04/26 02:04:42;;;;;;;15.68;12.98;;;;;;;14.83;60.74;100289.66;5080206;28;20052;-86
2021/04/26 02:08:26;;;;;;;15.50;13.50;;;;;;;14.80;61.39;100307.03;5055542;28;20037;-85
2021/04/26 02:11:31;;;;;;;16.70;13.15;;;;;;;14.80;60.82;100301.63;5038364;28;20531;-85
2021/04/26 02:14:40;;;;;;;19.20;13.02;;;;;;;14.78;60.82;100300.94;5071727;28;20040;-85
2021/04/26 02:17:47;;;;;;;16.75;13.10;;;;;;;14.67;61.31;100295.81;5091512;28;20043;-86
2021/04/26 02:20:51;;;;;;;14.00;11.75;;;;;;;14.65;61.11;100294.28;5097387;28;20046;-84
2021/04/26 02:23:56;;;;;;;15.80;12.52;;;;;;;14.62;61.21;100287.34;5091452;28;20046;-83
2021/04/26 02:27:02;;;;;;;19.05;13.07;;;;;;;14.56;61.20;100274.50;5079102;28;20064;-84
2021/04/26 02:30:08;;;;;;;16.85;12.80;;;;;;;14.38;62.13;100276.44;5058336;28;20064;-85
2021/04/26 02:33:20;;;;;;;15.70;11.93;;;;;;;14.39;61.36;100270.03;5077708;28;20036;-84
2021/04/26 02:36:38;;;;;;;18.52;12.50;;;;;;;14.33;61.38;100270.66;5070363;28;20044;-85
2021/04/26 02:39:46;;;;;;;16.20;12.13;;;;;;;14.35;61.83;100274.06;5068903;28;20059;-85
2021/04/26 02:42:55;;;;;;;15.45;12.05;;;;;;;14.32;61.66;100285.16;5070013;28;20043;-84
2021/04/26 02:46:02;;;;;;;18.08;12.40;;;;;;;14.28;61.27;100281.94;5078473;28;20043;-85
2021/04/26 02:49:08;;;;;;;14.57;12.45;;;;;;;14.33;61.28;100270.66;5066740;28;20043;-85
2021/04/26 02:52:14;;;;;;;14.95;11.88;;;;;;;14.28;60.74;100259.47;5074046;28;20063;-85
2021/04/26 02:55:21;;;;;;;15.75;12.05;;;;;;;14.25;60.56;100273.28;5074581;28;20055;-85
2021/04/26 02:58:26;;;;;;;15.27;12.05;;;;;;;14.22;60.95;100265.53;5073080;28;20045;-84
2021/04/26 03:01:31;;;;;;;12.43;11.10;;;;;;;14.28;60.86;100254.94;5073391;28;20494;-84
2021/04/26 03:04:50;;;;;;;18.58;13.30;;;;;;;14.33;60.82;100258.03;5073330;28;20036;-84
2021/04/26 03:07:55;;;;;;;14.40;12.00;;;;;;;14.35;60.92;100255.16;5073897;28;20036;-85
2021/04/26 03:11:01;;;;;;;14.93;12.25;;;;;;;14.28;60.28;100254.06;5081264;28;20052;-85
2021/04/26 03:14:08;;;;;;;15.75;12.75;;;;;;;14.25;60.12;100254.38;5072618;28;20052;-85
2021/04/26 03:17:14;;;;;;;14.18;12.68;;;;;;;14.21;60.44;100250.31;5057797;28;20051;-86
2021/04/26 03:20:25;;;;;;;14.85;12.93;;;;;;;14.15;61.20;100264.44;5072220;28;20048;-86
2021/04/26 03:23:51;;;;;;;17.45;13.05;;;;;;;13.92;61.25;100247.97;5079887;28;20052;-84
2021/04/26 03:26:57;;;;;;;15.52;12.52;;;;;;;13.91;61.71;100253.50;5081343;28;20040;-84
2021/04/26 03:30:05;;;;;;;19.52;13.20;;;;;;;13.83;61.34;100261.53;5081845;28;20490;-85
2021/04/26 03:33:19;;;;;;;15.27;12.05;;;;;;;13.76;61.45;100274.81;5073985;28;20071;-85
2021/04/26 03:36:24;;;;;;;16.30;11.73;;;;;;;13.91;60.75;100283.19;5082196;28;20355;-86
2021/04/26 03:39:30;;;;;;;12.88;11.48;;;;;;;13.90;60.62;100284.22;5072534;28;20048;-85
2021/04/26 03:42:38;;;;;;;15.25;11.88;;;;;;;13.92;60.59;100288.44;5081046;28;20071;-86
2021/04/26 03:45:45;;;;;;;13.23;11.70;;;;;;;13.88;60.60;100294.28;5062694;28;20047;-85
2021/04/26 03:49:09;;;;;;;14.02;12.10;;;;;;;13.91;60.81;100299.38;5073361;28;20041;-85
2021/04/26 03:52:31;;;;;;;13.65;10.75;;;;;;;13.89;60.20;100298.69;5078433;28;20402;-84
2021/04/26 03:55:58;;;;;;;12.02;10.82;;;;;;;13.97;60.23;100298.75;5065346;28;20411;-85
2021/04/26 03:59:03;;;;;;;17.33;11.05;;;;;;;13.99;60.62;100311.09;5073742;28;20479;-85
2021/04/26 04:02:09;;;;;;;12.88;11.55;;;;;;;13.98;59.70;100309.38;5076212;28;20044;-84
2021/04/26 04:05:19;;;;;;;17.13;12.45;;;;;;;13.97;59.42;100299.63;5080698;28;20399;-85
2021/04/26 04:08:56;;;;;;;21.35;12.23;;;;;;;13.94;59.26;100305.31;5073834;28;20037;-85
2021/04/26 04:12:19;;;;;;;16.35;10.93;;;;;;;13.92;59.62;100303.78;5080107;28;21417;-86
2021/04/26 04:15:31;;;;;;;17.67;12.05;;;;;;;13.90;59.50;100292.31;5082198;28;20047;-84
2021/04/26 04:18:37;;;;;;;12.30;10.98;;;;;;;13.85;59.68;100297.31;5072618;28;20037;-84
2021/04/26 04:21:41;;;;;;;16.92;12.07;;;;;;;13.90;60.29;100297.69;5073434;28;20064;-83
2021/04/26 04:24:48;;;;;;;16.83;12.32;;;;;;;13.94;59.39;100310.72;5071496;28;20040;-86
2021/04/26 04:27:53;;;;;;;17.15;11.50;;;;;;;13.97;59.51;100312.25;5073841;28;20040;-86
2021/04/26 04:30:59;;;;;;;13.82;11.82;;;;;;;13.97;59.50;100323.06;5072975;28;20502;-86
2021/04/26 04:34:22;;;;;;;13.90;11.07;;;;;;;14.03;59.59;100322.41;5078573;28;20051;-85
2021/04/26 04:38:06;;;;;;;12.63;11.43;;;;;;;14.07;59.21;100310.31;5059531;28;20040;-85
2021/04/26 04:41:28;;;;;;;13.48;10.95;;;;;;;14.13;59.06;100324.00;5078788;28;20044;-86
2021/04/26 04:44:34;;;;;;;13.27;11.18;;;;;;;14.07;59.21;100310.31;5071696;28;20047;-86
2021/04/26 04:47:38;;;;;;;14.55;11.43;;;;;;;14.04;59.27;100316.00;5078163;28;20048;-86
2021/04/26 04:50:43;;;;;;;13.88;11.75;;;;;;;13.95;60.47;100319.66;5073043;28;20142;-83
2021/04/26 04:53:47;;;;;;;13.20;11.60;;;;;;;13.96;61.65;100330.28;5067324;28;20047;-87
2021/04/26 04:56:54;;;;;;;18.75;12.82;;;;;;;13.92;62.67;100331.63;5071453;28;20036;-84
2021/04/26 05:00:00;;;;;;;18.48;13.07;;;;;;;14.05;62.78;100333.88;5079786;28;20053;-86
2021/04/26 05:03:23;;;;;;;57.30;46.40;;;;;;;14.17;62.48;100332.66;5073470;28;20048;-83
2021/04/26 05:06:46;;;;;;;77.60;65.32;;;;;;;14.30;62.15;100338.47;5077931;28;20426;-84
2021/04/26 05:10:09;;;;;;;32.17;25.15;;;;;;;14.31;62.44;100335.66;5078575;28;20388;-84
2021/04/26 05:13:45;;;;;;;16.00;13.55;;;;;;;14.36;62.78;100332.47;5057690;28;20486;-86
2021/04/26 05:16:50;;;;;;;16.70;11.38;;;;;;;14.35;62.28;100341.56;5078634;28;20040;-86
2021/04/26 05:19:55;;;;;;;21.15;10.63;;;;;;;14.26;61.90;100351.44;5079066;28;20059;-86
2021/04/26 05:23:00;;;;;;;16.13;10.52;;;;;;;14.29;61.35;100352.97;5079709;28;20048;-85
2021/04/26 05:26:05;;;;;;;12.60;10.80;;;;;;;14.43;61.08;100360.53;5073516;28;20044;-86
2021/04/26 05:29:09;;;;;;;12.70;9.10;;;;;;;14.42;60.14;100345.31;5091580;28;20027;-86
2021/04/26 05:32:14;;;;;;;11.82;8.60;;;;;;;14.39;58.56;100353.75;5097779;28;20043;-84
2021/04/26 05:35:20;;;;;;;10.35;8.20;;;;;;;14.40;58.34;100355.44;5089823;28;20055;-84
2021/04/26 05:38:27;;;;;;;11.80;7.78;;;;;;;14.44;57.98;100350.56;5078692;28;20047;-85
2021/04/26 05:41:31;;;;;;;12.95;7.97;;;;;;;14.45;57.08;100353.09;5078093;28;20055;-84
2021/04/26 05:44:36;;;;;;;11.68;8.48;;;;;;;14.59;57.46;100352.50;5078529;28;20067;-85
2021/04/26 05:48:19;;;;;;;8.85;7.53;;;;;;;14.68;56.83;100346.16;5056933;28;20048;-84
2021/04/26 05:51:24;;;;;;;16.35;7.65;;;;;;;14.84;56.39;100348.94;5057278;28;20056;-85
2021/04/26 05:54:28;;;;;;;16.40;7.80;;;;;;;15.27;55.25;100350.63;5054916;28;20056;-84
2021/04/26 05:57:33;;;;;;;13.55;8.20;;;;;;;15.76;54.19;100351.56;5054151;28;20502;-83
2021/04/26 06:00:37;;;;;;;16.23;7.82;;;;;;;16.24;52.89;100345.31;5053413;28;20048;-84
2021/04/26 06:03:41;;;;;;;13.48;8.38;;;;;;;16.39;51.93;100326.50;5058569;28;20055;-82
2021/04/26 06:06:45;;;;;;;12.63;8.32;;;;;;;16.33;51.91;100329.88;5051280;28;20048;-89
2021/04/26 06:09:49;;;;;;;11.93;8.85;;;;;;;16.28;52.16;100331.25;5053813;28;20060;-87
2021/04/26 06:12:54;;;;;;;10.93;8.93;;;;;;;17.42;50.41;100342.56;5051614;28;20247;-82
2021/04/26 06:15:58;;;;;;;12.35;8.27;;;;;;;17.75;50.34;100340.50;5056952;28;20056;-81
2021/04/26 06:19:04;;;;;;;13.75;9.20;;;;;;;18.82;47.87;100332.84;5064638;28;20048;-81
2021/04/26 06:22:08;;;;;;;12.68;8.65;;;;;;;20.21;43.88;100330.66;5075213;28;20107;-81
2021/04/26 06:25:13;;;;;;;13.38;9.70;;;;;;;20.10;44.14;100334.75;5081277;28;20055;-84
2021/04/26 06:28:18;;;;;;;14.85;11.25;;;;;;;18.65;47.53;100326.78;5080610;28;20055;-85
2021/04/26 06:31:23;;;;;;;18.08;11.68;;;;;;;18.06;49.55;100327.69;5082331;28;20043;-81
2021/04/26 06:34:27;;;;;;;15.27;12.65;;;;;;;17.36;51.74;100343.25;5073769;28;20051;-86
2021/04/26 06:37:32;;;;;;;29.63;14.73;;;;;;;17.23;52.61;100332.97;5084108;28;20063;-86
2021/04/26 06:40:37;;;;;;;21.67;14.10;;;;;;;17.88;50.98;100335.28;5077017;28;20072;-82
2021/04/26 06:43:42;;;;;;;17.45;14.10;;;;;;;17.47;52.92;100338.28;5083963;28;20051;-81
2021/04/26 06:46:46;;;;;;;22.42;14.40;;;;;;;18.16;52.20;100330.97;5083355;28;20047;-82
2021/04/26 06:49:50;;;;;;;30.65;15.48;;;;;;;19.67;48.84;100323.06;5083858;28;20048;-84
2021/04/26 06:52:55;;;;;;;25.88;14.05;;;;;;;19.64;48.04;100326.16;5083935;28;20040;-82
2021/04/26 06:56:00;;;;;;;26.23;13.63;;;;;;;18.88;50.35;100331.28;5082085;28;20064;-82
2021/04/26 06:59:04;;;;;;;31.05;15.00;;;;;;;18.22;52.58;100326.69;5067900;28;20047;-82
2021/04/26 07:02:09;;;;;;;28.83;15.93;;;;;;;17.45;55.21;100332.16;5078262;28;20063;-81
2021/04/26 07:05:14;;;;;;;22.63;15.00;;;;;;;17.00;57.18;100320.41;5071306;28;20041;-82
2021/04/26 07:08:18;;;;;;;20.70;16.80;;;;;;;16.67;59.03;100316.97;5081457;28;20071;-79
2021/04/26 07:11:23;;;;;;;20.75;16.77;;;;;;;16.51;60.14;100309.72;5081510;28;20048;-84
2021/04/26 07:14:28;;;;;;;19.63;17.63;;;;;;;16.19;62.15;100290.81;5062789;28;20052;-84
2021/04/26 07:17:34;;;;;;;23.77;19.25;;;;;;;16.04;63.58;100287.13;5079491;28;20044;-81
2021/04/26 07:20:39;;;;;;;22.80;19.10;;;;;;;15.90;63.95;100293.22;5079263;28;20041;-80
2021/04/26 07:23:44;;;;;;;29.52;21.00;;;;;;;15.73;64.97;100284.25;5080732;28;20059;-84
2021/04/26 07:26:48;;;;;;;25.63;22.20;;;;;;;15.56;66.33;100280.69;5075619;28;20056;-81
2021/04/26 07:29:53;;;;;;;32.58;24.02;;;;;;;15.52;67.30;100283.91;5061447;28;20472;-82
2021/04/26 07:32:58;;;;;;;29.20;24.65;;;;;;;15.51;67.35;100291.19;5062098;28;20064;-82
2021/04/26 07:36:02;;;;;;;34.75;24.73;;;;;;;15.54;67.86;100298.13;5061534;28;20437;-79
2021/04/26 07:39:08;;;;;;;30.15;23.35;;;;;;;15.36;68.98;100297.38;5061779;28;20048;-81
2021/04/26 07:42:13;;;;;;;29.50;21.55;;;;;;;15.20;69.67;100289.25;5069075;28;20052;-81
2021/04/26 07:45:21;;;;;;;25.10;21.25;;;;;;;15.13;69.72;100289.06;5062203;28;20376;-82
2021/04/26 07:48:26;;;;;;;28.67;20.50;;;;;;;15.20;69.92;100295.50;5071778;28;20045;-81
2021/04/26 07:51:30;;;;;;;30.88;21.83;;;;;;;15.13;69.86;100309.84;5062233;28;20041;-82
2021/04/26 07:54:34;;;;;;;26.05;22.73;;;;;;;15.16;70.06;100304.94;5061802;28;20052;-82
2021/04/26 07:57:40;;;;;;;26.33;21.70;;;;;;;15.26;69.50;100304.78;5062157;28;20060;-81
2021/04/26 08:01:05;;;;;;;30.73;21.17;;;;;;;15.38;69.25;100298.06;5053253;28;20148;-81
2021/04/26 08:04:30;;;;;;;22.08;19.70;;;;;;;15.51;69.00;100306.56;4973715;28;20065;-82
2021/04/26 08:07:55;;;;;;;28.88;20.38;;;;;;;15.55;68.33;100311.47;4962134;28;20046;-81
2021/04/26 08:11:19;;;;;;;23.23;20.70;;;;;;;15.68;68.03;100316.38;4898233;29;20059;-81
2021/04/26 08:14:45;;;;;;;26.98;20.33;;;;;;;15.77;67.23;100328.06;4879433;29;20053;-82
2021/04/26 08:18:09;;;;;;;25.75;20.60;;;;;;;15.75;67.36;100339.03;4823709;29;20066;-82
2021/04/26 08:21:35;;;;;;;28.02;20.50;;;;;;;15.91;66.92;100332.81;4777735;30;20048;-82
2021/04/26 08:25:00;;;;;;;25.25;19.95;;;;;;;15.91;67.27;100336.38;4787991;29;20404;-84
2021/04/26 08:28:27;;;;;;;26.48;19.55;;;;;;;15.77;67.16;100337.03;4799528;30;20163;-82
2021/04/26 08:31:53;;;;;;;25.80;18.00;;;;;;;15.71;66.63;100339.56;5125540;27;20446;-83
2021/04/26 08:35:18;;;;;;;24.85;18.20;;;;;;;15.65;66.31;100340.25;5068453;28;20518;-82
2021/04/26 08:38:43;;;;;;;23.83;18.58;;;;;;;15.78;65.25;100348.69;5016778;28;20053;-83
2021/04/26 08:42:14;;;;;;;21.45;18.77;;;;;;;15.81;65.26;100349.22;4980995;28;20078;-84
2021/04/26 08:45:38;;;;;;;22.23;18.02;;;;;;;15.84;64.90;100337.22;4931217;29;20178;-83
2021/04/26 08:49:04;;;;;;;20.33;18.17;;;;;;;15.99;65.08;100336.38;4893368;29;20412;-82
2021/04/26 08:52:29;;;;;;;24.27;18.70;;;;;;;16.10;65.06;100333.31;4837618;29;20085;-82
2021/04/26 08:55:54;;;;;;;26.00;17.65;;;;;;;16.32;65.13;100347.19;4838033;29;20057;-82
2021/04/26 08:59:19;;;;;;;20.58;18.33;;;;;;;16.28;64.18;100347.50;4819233;29;20046;-83
2021/04/26 09:02:56;;;;;;;26.08;18.58;;;;;;;16.31;64.91;100345.47;4800636;29;20054;-82
2021/04/26 09:06:01;;;;;;;24.90;18.13;;;;;;;16.39;65.49;100340.91;4782820;30;20203;-83
2021/04/26 09:09:07;;;;;;;23.40;19.30;;;;;;;16.31;65.31;100340.06;4843627;29;20049;-85
2021/04/26 09:12:23;;;;;;;23.40;18.27;;;;;;;16.09;66.36;100341.59;4830001;29;20069;-83
2021/04/26 09:15:47;;;;;;;21.17;18.40;;;;;;;16.07;67.12;100343.66;4839328;29;20056;-83
2021/04/26 09:19:05;;;;;;;21.90;19.13;;;;;;;15.97;67.07;100349.22;4854627;29;20052;-84
2021/04/26 09:22:10;;;;;;;22.88;19.35;;;;;;;16.09;67.64;100361.41;4874492;29;20056;-82
2021/04/26 09:25:32;;;;;;;25.85;19.85;;;;;;;16.17;65.92;100366.00;4906732;29;20055;-82
2021/04/26 09:28:37;;;;;;;27.80;19.83;;;;;;;16.08;66.48;100365.13;4955072;28;20590;-87
2021/04/26 09:31:57;;;;;;;24.08;18.13;;;;;;;16.07;66.75;100374.25;4988004;28;20058;-87
2021/04/26 09:35:02;;;;;;;20.38;18.20;;;;;;;16.02;67.19;100373.09;5015715;28;20044;-82
2021/04/26 09:38:32;;;;;;;25.67;19.55;;;;;;;15.92;67.21;100367.84;5065578;28;20048;-81
2021/04/26 09:41:37;;;;;;;27.40;20.20;;;;;;;16.01;67.51;100358.69;5084665;28;20064;-83
2021/04/26 09:44:41;;;;;;;27.15;18.50;;;;;;;16.16;66.96;100348.88;5075949;28;20506;-83
2021/04/26 09:47:46;;;;;;;23.33;18.33;;;;;;;16.21;65.99;100357.34;5092901;28;20513;-82
2021/04/26 09:50:55;;;;;;;23.85;19.05;;;;;;;16.20;66.29;100352.94;5088524;28;20059;-84
2021/04/26 09:54:00;;;;;;;21.38;18.73;;;;;;;16.14;66.51;100356.34;5095933;28;20043;-83
2021/04/26 09:57:05;;;;;;;26.65;18.83;;;;;;;16.14;66.85;100355.50;5096238;28;20060;-84
2021/04/26 10:00:10;;;;;;;23.75;18.08;;;;;;;16.07;67.71;100365.31;5096020;28;20047;-83
2021/04/26 10:03:16;;;;;;;24.45;19.00;;;;;;;16.01;67.86;100361.41;5093147;28;20063;-83
2021/04/26 10:06:24;;;;;;;26.95;19.48;;;;;;;15.88;68.35;100366.47;5078563;28;20048;-83
2021/04/26 10:09:29;;;;;;;25.50;19.10;;;;;;;15.94;69.37;100382.06;5093764;28;20047;-83
2021/04/26 10:12:33;;;;;;;25.60;20.25;;;;;;;15.83;69.58;100362.56;5095617;28;20051;-82
2021/04/26 10:15:39;;;;;;;27.00;21.63;;;;;;;15.80;71.69;100368.34;5092906;28;20493;-84
2021/04/26 10:18:44;;;;;;;24.27;21.67;;;;;;;15.84;71.99;100378.66;5094671;28;20051;-83
2021/04/26 10:21:55;;;;;;;22.83;20.40;;;;;;;15.78;71.33;100382.03;5094556;28;20050;-82
2021/04/26 10:25:00;;;;;;;23.42;20.88;;;;;;;15.82;71.94;100398.78;5077652;28;20051;-84
2021/04/26 10:28:33;;;;;;;25.30;21.58;;;;;;;15.93;72.50;100407.41;5075204;28;20067;-82
2021/04/26 10:31:56;;;;;;;25.33;22.58;;;;;;;16.09;72.95;100412.00;5074888;28;20047;-83
2021/04/26 10:35:00;;;;;;;31.50;22.90;;;;;;;16.17;72.62;100412.03;5075306;28;20060;-83
2021/04/26 10:38:40;;;;;;;26.15;22.13;;;;;;;16.05;71.67;100406.06;5074978;28;20047;-82
2021/04/26 10:42:10;;;;;;;27.60;21.75;;;;;;;16.14;71.17;100396.09;5074954;28;20052;-79
2021/04/26 10:45:19;;;;;;;28.95;23.02;;;;;;;16.36;70.74;100394.56;5075454;28;20043;-78
2021/04/26 10:48:24;;;;;;;27.05;21.33;;;;;;;16.43;69.14;100391.00;5074774;28;20056;-77
2021/04/26 10:51:28;;;;;;;25.13;22.40;;;;;;;16.52;69.14;100391.84;5090518;28;20113;-79
2021/04/26 10:54:51;;;;;;;24.52;21.92;;;;;;;16.63;69.28;100388.81;5093639;28;20051;-78
2021/04/26 10:57:59;;;;;;;27.92;21.08;;;;;;;16.87;68.44;100388.75;5074456;28;20052;-79
2021/04/26 11:01:03;;;;;;;25.30;20.35;;;;;;;17.02;68.13;100391.56;5074490;28;20122;-81
2021/04/26 11:04:07;;;;;;;26.60;21.17;;;;;;;17.20;68.53;100389.47;5074568;28;20515;-79
2021/04/26 11:07:17;;;;;;;26.30;21.55;;;;;;;17.21;68.54;100383.84;5079087;28;20059;-79
2021/04/26 11:10:39;;;;;;;24.75;21.08;;;;;;;17.44;68.52;100386.63;5076624;28;20051;-83
2021/04/26 11:13:50;;;;;;;26.58;21.33;;;;;;;17.48;67.46;100385.25;5092635;28;20430;-84
2021/04/26 11:17:03;;;;;;;23.35;19.83;;;;;;;17.65;67.47;100383.34;5095019;28;20067;-83
2021/04/26 11:20:14;;;;;;;;;;;;;;;17.63;67.70;100382.69;5106736;28;20055;-78
2021/04/26 11:23:42;;;;;;;24.83;20.85;;;;;;;17.66;67.31;100382.28;5097641;28;19916;-81
2021/04/26 11:27:08;;;;;;;28.60;23.48;;;;;;;17.41;69.48;100373.41;5092563;28;20147;-82
2021/04/26 11:30:15;;;;;;;28.15;22.13;;;;;;;17.27;69.43;100371.47;5072591;28;20063;-83
2021/04/26 11:33:20;;;;;;;25.30;22.63;;;;;;;17.23;69.69;100367.41;5076405;28;20059;-80
2021/04/26 11:36:24;;;;;;;26.70;22.23;;;;;;;17.24;69.39;100367.22;5091893;28;20154;-81
2021/04/26 11:39:42;;;;;;;25.88;22.95;;;;;;;17.09;70.64;100357.28;5093490;28;20032;-81
2021/04/26 11:42:47;;;;;;;25.05;22.20;;;;;;;17.21;70.66;100359.44;5093659;28;20047;-82
2021/04/26 11:45:51;;;;;;;25.75;22.65;;;;;;;17.20;70.34;100352.34;5092553;28;20047;-80
2021/04/26 11:49:22;;;;;;;27.38;21.50;;;;;;;16.98;69.74;100336.84;5073640;28;20367;-79
2021/04/26 11:52:28;;;;;;;27.23;22.08;;;;;;;16.99;70.09;100346.66;5079637;28;20048;-82
2021/04/26 11:55:33;;;;;;;25.98;21.40;;;;;;;17.12;69.28;100336.09;5073195;28;20044;-81
2021/04/26 11:58:38;;;;;;;25.45;22.73;;;;;;;17.29;69.68;100343.13;5081090;28;20067;-82
2021/04/26 12:01:50;;;;;;;23.77;21.15;;;;;;;17.31;70.10;100332.94;5072943;28;20056;-81
2021/04/26 12:05:03;;;;;;;25.35;22.55;;;;;;;17.31;70.08;100334.81;5091981;28;20592;-78
2021/04/26 12:08:07;;;;;;;24.10;21.50;;;;;;;17.41;69.62;100327.28;5092116;28;20044;-80
2021/04/26 12:11:21;;;;;;;26.08;22.55;;;;;;;17.54;70.10;100325.72;5090398;28;20040;-79
2021/04/26 12:14:26;;;;;;;23.77;21.27;;;;;;;17.64;69.79;100314.63;5098907;28;20044;-81
2021/04/26 12:17:39;;;;;;;26.30;22.08;;;;;;;17.59;69.76;100306.16;5085916;28;20090;-81
2021/04/26 12:20:43;;;;;;;26.20;21.55;;;;;;;17.51;71.12;100307.03;5088173;28;20060;-79
2021/04/26 12:23:48;;;;;;;24.92;21.80;;;;;;;17.58;70.28;100309.06;5072654;28;20044;-78
2021/04/26 12:26:52;;;;;;;25.30;20.55;;;;;;;17.55;70.75;100305.66;5083517;28;20040;-80
2021/04/26 12:30:09;;;;;;;22.85;20.63;;;;;;;17.49;70.36;100300.94;5077011;28;20044;-84
2021/04/26 12:33:31;;;;;;;26.52;21.40;;;;;;;17.63;70.67;100312.09;5089545;28;20059;-82
2021/04/26 12:36:36;;;;;;;25.25;20.40;;;;;;;17.67;70.28;100313.41;5085944;28;20048;-82
2021/04/26 12:39:41;;;;;;;23.50;19.85;;;;;;;17.46;70.02;100314.88;5086843;28;20057;-82
2021/04/26 12:42:48;;;;;;;23.73;20.08;;;;;;;17.42;70.24;100321.69;5070531;28;20036;-80
2021/04/26 12:45:55;;;;;;;22.42;20.05;;;;;;;17.61;70.30;100322.25;5072356;28;20480;-85
2021/04/26 12:49:00;;;;;;;28.25;21.17;;;;;;;17.69;70.58;100322.22;5084389;28;20059;-85
2021/04/26 12:52:13;;;;;;;24.17;16.38;;;;;;;17.62;66.74;100318.53;5089799;28;20044;-84
2021/04/26 12:55:22;;;;;;;25.85;15.57;;;;;;;17.49;66.07;100319.94;5093152;28;20044;-83
2021/04/26 12:58:32;;;;;;;20.27;13.63;;;;;;;17.26;65.03;100318.22;5098658;28;20048;-87
2021/04/26 13:01:36;;;;;;;17.30;9.45;;;;;;;17.07;61.54;100305.94;5092741;28;20055;-82
2021/04/26 13:04:42;;;;;;;21.73;9.35;;;;;;;17.11;62.91;100309.16;5098851;28;20055;-84
2021/04/26 13:07:47;;;;;;;18.45;10.75;;;;;;;17.12;63.85;100295.41;5092632;28;20475;-85
2021/04/26 13:10:54;;;;;;;15.10;11.43;;;;;;;17.12;64.99;100294.56;5092406;28;20051;-82
2021/04/26 13:14:04;;;;;;;20.98;13.15;;;;;;;17.06;65.70;100301.53;5092890;28;20043;-87
2021/04/26 13:17:12;;;;;;;18.20;15.20;;;;;;;17.02;67.96;100294.78;5093689;28;20039;-85
2021/04/26 13:20:22;;;;;;;28.02;20.60;;;;;;;16.88;69.82;100287.41;5096328;28;20047;-86
2021/04/26 13:23:28;;;;;;;24.35;16.05;;;;;;;16.63;70.54;100289.38;5096204;28;20048;-85
2021/04/26 13:26:34;;;;;;;26.27;15.15;;;;;;;16.64;69.89;100277.50;5091408;28;20058;-85
2021/04/26 13:29:45;;;;;;;18.88;14.25;;;;;;;16.68;67.86;100284.28;5096364;28;20070;-87
2021/04/26 13:32:50;;;;;;;17.92;13.27;;;;;;;16.72;67.15;100274.75;5096428;28;20402;-86
2021/04/26 13:35:56;;;;;;;20.95;13.35;;;;;;;16.88;66.93;100266.56;5096354;28;20040;-87
2021/04/26 13:39:01;;;;;;;19.65;12.07;;;;;;;16.95;65.47;100274.84;5096083;28;20126;-84
2021/04/26 13:42:08;;;;;;;18.67;12.10;;;;;;;16.85;65.22;100264.22;5096117;28;20059;-81
2021/04/26 13:45:12;;;;;;;17.80;11.50;;;;;;;16.87;65.32;100258.59;5075560;28;20063;-85
2021/04/26 13:48:17;;;;;;;17.50;11.63;;;;;;;17.11;65.05;100250.31;5074638;28;20048;-79
2021/04/26 13:51:22;;;;;;;22.35;11.70;;;;;;;17.02;65.77;100250.53;5074985;28;20514;-78
2021/04/26 13:54:26;;;;;;;16.23;11.05;;;;;;;17.08;65.76;100244.41;5075277;28;20047;-80
2021/04/26 13:57:30;;;;;;;19.52;11.32;;;;;;;16.91;65.42;100251.81;5094071;28;20059;-79
2021/04/26 14:00:35;;;;;;;21.50;12.77;;;;;;;16.87;66.75;100239.63;5095345;28;20043;-82
2021/04/26 14:03:40;;;;;;;16.85;11.15;;;;;;;16.82;65.82;100229.31;5093619;28;20051;-81
2021/04/26 14:06:47;;;;;;;18.73;10.82;;;;;;;16.73;65.50;100224.13;5096274;28;20051;-83
2021/04/26 14:09:51;;;;;;;15.77;10.38;;;;;;;16.66;67.50;100218.56;5095837;28;20050;-86
2021/04/26 14:12:56;;;;;;;16.13;11.13;;;;;;;16.80;66.90;100206.09;5095622;28;20044;-87
2021/04/26 14:16:02;;;;;;;17.58;11.88;;;;;;;17.01;65.99;100209.00;5095719;28;20047;-86
2021/04/26 14:19:07;;;;;;;22.83;11.50;;;;;;;17.01;66.11;100210.91;5095352;28;20130;-84
2021/04/26 14:22:13;;;;;;;17.77;11.23;;;;;;;17.04;65.58;100211.38;5095314;28;20051;-81
2021/04/26 14:25:17;;;;;;;17.23;10.38;;;;;;;17.07;65.11;100210.19;5095526;28;20040;-86
2021/04/26 14:28:22;;;;;;;17.42;10.73;;;;;;;17.05;64.44;100217.66;5095034;28;20400;-79